Portada
METAR-TAF:

METAR-TAF

Aeropuertos :

Joplin Regional Airport

Joplin, Misuri, Estados Unidos

latitud: 37-09-22N, longitud: 094-30-02W, altitud: 299 m

Observación

El informe se hizo hace 1 hora y 10 minutos, a las 22:53 UTC
Viento 9 kt del este
Temperatura 33°C
Humedad 53%
Presión 1013 hPa
Visibilidad: 16.1 km
Escasas nubes a una altura de 5500 ft

METAR: KJLN 062253Z 10009KT 10SM FEW055 33/22 A2991 RMK AO2 SLP116 T03280222

Hora: 19:03 (00:03 UTC)

Pronóstico

El informe se hizo hace 36 minutos, a las 23:27 UTC
Pronóstico válido del 07 a las 00 UTC al 07 a las 24 UTC
Viento 7 kt del este-sureste
Visibilidad: 10 km
Cielo despejado
A partir de las 07 a las 0500 UTC
Viento 7 kt del sur-sureste
Visibilidad: 10 km
Escasas nubes a una altura de 25000 ft

TAF: KJLN 062327Z 0700/0724 12007KT P6SM SKC FM070500 15007KT P6SM FEW250

Observaciones y pronósticos meteorológicos de más de 4000 aeropuertos (mensajes METAR y TAF).

Los puntos amarillos y rojos representan las estaciones disponibles.

Ponga el ratón en el punto deseado para ver el nombre de la estación.

Haga clic para ver las observaciones y los pronósticos meteorológicos.

Para cambiar el mapa : haga clic en los botones verdes con una cruz de color negro para hacer un zoom, en el botón verde con un guión para alejar o en las flechas verdes para mapas adyacentes.


METAR-TAF: